Time;durP1;ratioP1;P1;durP2;ratioP2;P2;SDS_P1;SDS_P2;PMS_P1;PMS_P2;Temp;Humidity;BMP_temperature;BMP_pressure;BME280_temperature;BME280_humidity;BME280_pressure;Samples;Min_cycle;Max_cycle;Signal;HPM_P1;HPM_P2
2023/07/25 00:00:23;;;;;;;7.43;5.05;;;17.20;99.90;;;;;;7558400;19;20014;-71
2023/07/25 00:02:55;;;;;;;8.02;4.65;;;17.20;99.90;;;;;;7541357;19;20014;-72
2023/07/25 00:05:27;;;;;;;6.63;4.43;;;17.20;99.90;;;;;;7563335;19;20652;-72
2023/07/25 00:07:59;;;;;;;6.25;4.40;;;17.30;99.90;;;;;;7543314;19;20410;-72
2023/07/25 00:10:33;;;;;;;7.78;4.38;;;17.10;99.90;;;;;;7533209;19;20347;-71
2023/07/25 00:13:06;;;;;;;8.00;4.55;;;17.10;99.90;;;;;;7521382;19;20323;-71
2023/07/25 00:15:38;;;;;;;6.20;4.47;;;17.20;99.90;;;;;;7534318;19;21419;-71
2023/07/25 00:18:10;;;;;;;8.10;4.80;;;17.20;99.90;;;;;;7537099;19;20687;-69
2023/07/25 00:20:43;;;;;;;9.02;5.20;;;17.10;99.90;;;;;;7504071;19;20511;-72
2023/07/25 00:23:15;;;;;;;6.63;4.75;;;17.10;99.90;;;;;;7571761;19;20123;-72
2023/07/25 00:25:47;;;;;;;6.40;4.70;;;17.10;99.90;;;;;;7562565;19;20348;-72
2023/07/25 00:28:22;;;;;;;7.60;4.68;;;17.20;99.90;;;;;;7555143;19;20019;-71
2023/07/25 00:30:54;;;;;;;7.50;4.53;;;17.20;99.90;;;;;;7557840;19;20437;-70
2023/07/25 00:33:27;;;;;;;6.82;5.07;;;17.20;99.90;;;;;;7587447;19;20014;-71
2023/07/25 00:35:59;;;;;;;7.82;4.70;;;17.20;99.90;;;;;;7540772;19;20022;-71
2023/07/25 00:38:31;;;;;;;7.53;4.53;;;17.10;99.90;;;;;;7539580;19;20033;-73
2023/07/25 00:41:04;;;;;;;7.53;4.30;;;17.10;99.90;;;;;;7558907;19;20110;-73
2023/07/25 00:43:36;;;;;;;9.98;4.38;;;17.10;99.90;;;;;;7578786;19;20015;-73
2023/07/25 00:46:08;;;;;;;9.75;4.70;;;17.10;99.90;;;;;;7573622;19;20051;-72
2023/07/25 00:48:41;;;;;;;7.40;5.10;;;17.10;99.90;;;;;;7557950;19;20011;-72
2023/07/25 00:51:14;;;;;;;8.65;4.60;;;17.10;99.90;;;;;;7536181;19;20006;-71
2023/07/25 00:53:46;;;;;;;6.40;4.50;;;17.00;99.90;;;;;;7554172;19;20520;-72
2023/07/25 00:56:19;;;;;;;8.40;5.10;;;17.10;99.90;;;;;;7572735;19;21131;-72
2023/07/25 00:58:51;;;;;;;9.50;4.38;;;17.10;99.90;;;;;;7565116;19;20014;-71
2023/07/25 01:01:25;;;;;;;10.52;4.70;;;17.10;99.90;;;;;;7555996;19;20022;-71
2023/07/25 01:03:57;;;;;;;;;;;17.10;99.90;;;;;;7576702;19;20439;-72
2023/07/25 01:06:30;;;;;;;8.98;4.35;;;17.10;99.90;;;;;;7562955;19;19918;-74
2023/07/25 01:09:02;;;;;;;6.35;4.55;;;17.10;99.90;;;;;;7564459;19;20018;-74
2023/07/25 01:11:35;;;;;;;7.57;4.80;;;17.10;99.90;;;;;;7549020;19;20015;-74
2023/07/25 01:14:07;;;;;;;7.95;4.45;;;17.10;99.90;;;;;;7542332;19;20097;-71
2023/07/25 01:16:40;;;;;;;10.30;4.87;;;17.10;99.90;;;;;;7536920;19;20527;-73
2023/07/25 01:19:17;;;;;;;8.68;5.05;;;17.10;99.90;;;;;;7570575;19;20019;-74
2023/07/25 01:21:49;;;;;;;6.93;4.50;;;17.10;99.90;;;;;;7553059;19;21357;-70
2023/07/25 01:24:22;;;;;;;9.35;4.40;;;17.20;99.90;;;;;;7564178;19;20018;-72
2023/07/25 01:26:55;;;;;;;8.00;4.47;;;17.20;99.90;;;;;;7581469;19;21455;-71
2023/07/25 01:29:27;;;;;;;;;;;17.30;99.90;;;;;;7558750;19;20041;-72
2023/07/25 01:32:00;;;;;;;11.20;4.65;;;17.30;99.90;;;;;;7561419;19;19933;-73
2023/07/25 01:34:32;;;;;;;7.97;4.82;;;17.30;99.90;;;;;;7577989;19;20022;-73
2023/07/25 01:37:05;;;;;;;7.80;4.65;;;17.30;99.90;;;;;;7554327;19;20014;-72
2023/07/25 01:39:37;;;;;;;5.93;4.38;;;17.30;99.90;;;;;;7576919;19;20049;-71
2023/07/25 01:42:10;;;;;;;8.45;5.00;;;17.30;99.90;;;;;;7563147;19;20021;-72
2023/07/25 01:44:42;;;;;;;7.88;4.75;;;17.20;99.90;;;;;;7557460;19;20019;-73
2023/07/25 01:47:14;;;;;;;6.35;4.40;;;17.20;99.90;;;;;;7574743;19;20659;-71
2023/07/25 01:49:46;;;;;;;6.28;4.15;;;17.10;99.90;;;;;;7541748;19;20027;-72
2023/07/25 01:52:19;;;;;;;6.05;3.72;;;17.20;99.90;;;;;;7560816;19;20060;-72
2023/07/25 01:54:53;;;;;;;6.72;4.22;;;17.10;99.90;;;;;;7541126;19;20014;-71
2023/07/25 01:57:25;;;;;;;9.45;4.55;;;17.10;99.90;;;;;;7535199;19;20031;-72
2023/07/25 01:59:58;;;;;;;7.43;4.65;;;17.10;99.90;;;;;;7545853;19;20021;-71
2023/07/25 02:02:30;;;;;;;6.53;4.65;;;17.10;99.90;;;;;;7579426;19;20025;-71
2023/07/25 02:05:03;;;;;;;8.35;4.45;;;17.00;99.90;;;;;;7586901;19;20014;-72
2023/07/25 02:07:35;;;;;;;6.35;4.65;;;17.00;99.90;;;;;;7574136;19;20023;-71
2023/07/25 02:10:08;;;;;;;7.28;4.65;;;17.00;99.90;;;;;;7538138;19;21005;-71
2023/07/25 02:12:40;;;;;;;9.23;4.63;;;17.10;99.90;;;;;;7568688;19;20959;-71
2023/07/25 02:15:12;;;;;;;6.65;4.30;;;17.20;99.90;;;;;;7561184;19;20537;-71
2023/07/25 02:17:45;;;;;;;8.45;4.75;;;17.20;99.90;;;;;;7555571;19;20007;-72
2023/07/25 02:20:18;;;;;;;7.75;4.57;;;17.20;99.90;;;;;;7524897;19;20069;-70
2023/07/25 02:22:50;;;;;;;7.88;4.80;;;17.20;99.90;;;;;;7556102;19;20467;-73
2023/07/25 02:25:25;;;;;;;5.80;4.47;;;17.10;99.90;;;;;;7561580;19;20354;-73
2023/07/25 02:27:57;;;;;;;11.57;5.28;;;17.10;99.90;;;;;;7573802;19;20015;-74
2023/07/25 02:30:30;;;;;;;7.53;4.82;;;17.00;99.90;;;;;;7574378;19;20014;-73
2023/07/25 02:33:02;;;;;;;9.38;5.07;;;16.90;99.90;;;;;;7574548;19;20018;-73
2023/07/25 02:35:35;;;;;;;8.07;4.55;;;16.80;99.90;;;;;;7550313;19;21607;-74
2023/07/25 02:38:08;;;;;;;7.70;4.50;;;16.80;99.90;;;;;;7546724;19;20489;-71
2023/07/25 02:40:41;;;;;;;7.88;4.70;;;16.80;99.90;;;;;;7574386;19;20915;-72
2023/07/25 02:43:13;;;;;;;8.63;5.27;;;16.80;99.90;;;;;;7578991;19;20014;-72
2023/07/25 02:45:46;;;;;;;7.43;4.97;;;16.80;99.90;;;;;;7574332;19;20716;-72
2023/07/25 02:48:19;;;;;;;9.00;5.15;;;16.80;99.90;;;;;;7591211;19;21149;-72
2023/07/25 02:50:51;;;;;;;9.43;5.05;;;16.80;99.90;;;;;;7575745;19;20678;-71
2023/07/25 02:53:24;;;;;;;6.38;4.85;;;16.80;99.90;;;;;;7576117;19;20010;-72
2023/07/25 02:55:57;;;;;;;8.27;4.57;;;16.80;99.90;;;;;;7573707;19;20021;-72
2023/07/25 02:58:30;;;;;;;8.60;5.32;;;16.70;99.90;;;;;;7574848;19;20018;-72
2023/07/25 03:01:02;;;;;;;11.18;5.28;;;16.70;99.90;;;;;;7571856;19;20011;-72
2023/07/25 03:03:35;;;;;;;7.75;5.10;;;16.70;99.90;;;;;;7562649;19;20825;-72
2023/07/25 03:06:07;;;;;;;9.85;5.10;;;16.70;99.90;;;;;;7581843;19;21689;-71
2023/07/25 03:08:39;;;;;;;8.95;4.60;;;16.70;99.90;;;;;;7573421;19;20890;-71
2023/07/25 03:11:12;;;;;;;9.90;4.72;;;16.60;99.90;;;;;;7578900;19;21110;-72
2023/07/25 03:13:44;;;;;;;8.45;4.47;;;16.70;99.90;;;;;;7568725;19;20140;-74
2023/07/25 03:16:16;;;;;;;7.45;4.72;;;16.60;99.90;;;;;;7559116;19;20010;-73
2023/07/25 03:18:49;;;;;;;7.63;4.50;;;16.60;99.90;;;;;;7596856;19;20026;-72
2023/07/25 03:21:21;;;;;;;9.32;5.50;;;16.60;99.90;;;;;;7558142;19;20022;-72
2023/07/25 03:23:54;;;;;;;8.40;5.63;;;16.60;99.90;;;;;;7548000;19;20015;-72
2023/07/25 03:26:26;;;;;;;12.32;5.30;;;16.50;99.90;;;;;;7540655;19;20054;-73
2023/07/25 03:28:59;;;;;;;9.07;5.18;;;16.40;99.90;;;;;;7543761;19;20051;-71
2023/07/25 03:31:31;;;;;;;7.28;4.72;;;16.40;99.90;;;;;;7551441;19;20018;-74
2023/07/25 03:34:04;;;;;;;10.00;4.75;;;16.50;99.90;;;;;;7573659;19;20018;-72
2023/07/25 03:36:36;;;;;;;8.57;4.70;;;16.50;99.90;;;;;;7580334;19;20303;-73
2023/07/25 03:39:08;;;;;;;9.02;5.20;;;16.60;99.90;;;;;;7587971;19;20010;-73
2023/07/25 03:41:40;;;;;;;6.28;4.97;;;16.50;99.90;;;;;;7594609;19;20472;-72
2023/07/25 03:44:20;;;;;;;7.88;5.00;;;16.60;99.90;;;;;;7590695;19;20018;-73
2023/07/25 03:46:52;;;;;;;9.27;5.07;;;16.60;99.90;;;;;;7566119;19;20014;-73
2023/07/25 03:49:25;;;;;;;6.97;4.72;;;16.60;99.90;;;;;;7588071;19;20025;-73
2023/07/25 03:51:57;;;;;;;7.65;4.60;;;16.70;99.90;;;;;;7576080;19;20014;-73
2023/07/25 03:54:29;;;;;;;9.38;4.78;;;16.60;99.90;;;;;;7544580;19;20501;-73
2023/07/25 03:57:03;;;;;;;9.43;5.15;;;16.70;99.90;;;;;;7558285;19;20019;-73
2023/07/25 03:59:35;;;;;;;9.70;4.80;;;16.60;99.90;;;;;;7569214;19;20048;-72
2023/07/25 04:02:07;;;;;;;7.18;4.45;;;16.60;99.90;;;;;;7566950;19;21126;-72
2023/07/25 04:04:40;;;;;;;7.82;4.35;;;16.60;99.90;;;;;;7574366;19;20019;-73
2023/07/25 04:07:12;;;;;;;10.35;5.38;;;16.60;99.90;;;;;;7568123;19;20024;-73
2023/07/25 04:09:44;;;;;;;9.18;5.60;;;16.50;99.90;;;;;;7572494;19;20118;-73
2023/07/25 04:12:17;;;;;;;9.60;5.00;;;16.50;99.90;;;;;;7568158;19;20018;-73
2023/07/25 04:14:49;;;;;;;6.18;4.53;;;16.50;99.90;;;;;;7579934;19;20014;-73
2023/07/25 04:17:21;;;;;;;10.85;5.43;;;16.50;99.90;;;;;;7568043;19;20082;-73
2023/07/25 04:19:54;;;;;;;10.48;5.00;;;16.40;99.90;;;;;;7583829;19;21317;-72
2023/07/25 04:22:26;;;;;;;6.72;4.75;;;16.40;99.90;;;;;;7545347;19;20104;-73
2023/07/25 04:24:58;;;;;;;6.10;4.35;;;16.50;99.90;;;;;;7553092;19;20368;-74
2023/07/25 04:27:31;;;;;;;9.25;5.68;;;16.40;99.90;;;;;;7560258;19;20021;-74
2023/07/25 04:30:04;;;;;;;12.20;4.88;;;16.40;99.90;;;;;;7570741;19;20090;-73
2023/07/25 04:32:36;;;;;;;9.85;4.60;;;16.40;99.90;;;;;;7561005;19;20006;-74
2023/07/25 04:35:09;;;;;;;11.02;4.90;;;16.30;99.90;;;;;;7568417;19;20086;-72
2023/07/25 04:37:41;;;;;;;6.43;4.40;;;16.40;99.90;;;;;;7572668;19;20316;-73
2023/07/25 04:40:14;;;;;;;6.25;4.57;;;16.40;99.90;;;;;;7559399;19;20014;-73
2023/07/25 04:42:46;;;;;;;11.18;5.35;;;16.30;99.90;;;;;;7539572;19;20352;-74
2023/07/25 04:45:19;;;;;;;8.73;5.07;;;16.30;99.90;;;;;;7512848;19;20107;-74
2023/07/25 04:47:51;;;;;;;10.35;5.15;;;16.30;99.90;;;;;;7514671;19;20014;-74
2023/07/25 04:50:23;;;;;;;7.00;4.70;;;16.30;99.90;;;;;;7520310;19;20944;-74
2023/07/25 04:52:56;;;;;;;9.27;4.95;;;16.30;99.90;;;;;;7527947;19;20612;-75
2023/07/25 04:55:28;;;;;;;7.50;4.82;;;16.40;99.90;;;;;;7570342;19;20018;-72
2023/07/25 04:58:02;;;;;;;7.78;5.20;;;16.30;99.90;;;;;;7543621;19;20026;-72
2023/07/25 05:00:34;;;;;;;8.15;4.68;;;16.30;99.90;;;;;;7567626;19;20018;-75
2023/07/25 05:03:07;;;;;;;6.65;4.60;;;16.40;99.90;;;;;;7581852;19;20021;-74
2023/07/25 05:05:39;;;;;;;8.88;4.50;;;16.40;99.90;;;;;;7586980;19;20531;-75
2023/07/25 05:08:12;;;;;;;10.32;5.38;;;16.30;99.90;;;;;;7573655;19;20006;-74
2023/07/25 05:10:44;;;;;;;10.55;6.00;;;16.30;99.90;;;;;;7576989;19;20919;-72
2023/07/25 05:13:17;;;;;;;10.75;4.80;;;16.30;99.90;;;;;;7582182;19;20022;-73
2023/07/25 05:15:49;;;;;;;7.88;5.10;;;16.20;99.90;;;;;;7577495;19;20022;-73
2023/07/25 05:18:21;;;;;;;10.98;5.30;;;16.30;99.90;;;;;;7584227;19;20013;-74
2023/07/25 05:20:53;;;;;;;11.50;4.65;;;16.20;99.90;;;;;;7558736;19;20637;-73
2023/07/25 05:23:26;;;;;;;7.57;4.63;;;16.20;99.90;;;;;;7582712;19;20047;-74
2023/07/25 05:25:58;;;;;;;10.52;4.93;;;16.20;99.90;;;;;;7570075;19;20052;-73
2023/07/25 05:28:31;;;;;;;7.32;4.90;;;16.20;99.90;;;;;;7567947;19;20003;-73
2023/07/25 05:31:03;;;;;;;8.40;5.47;;;16.20;99.90;;;;;;7567754;19;20010;-73
2023/07/25 05:33:37;;;;;;;9.23;5.68;;;16.10;99.90;;;;;;7585502;19;20029;-73
2023/07/25 05:36:09;;;;;;;9.18;5.18;;;16.10;99.90;;;;;;7580190;19;20022;-74
2023/07/25 05:38:41;;;;;;;7.85;4.93;;;16.20;99.90;;;;;;7586278;19;20006;-74
2023/07/25 05:41:13;;;;;;;6.80;4.90;;;16.20;99.90;;;;;;7571792;19;20015;-74
2023/07/25 05:43:46;;;;;;;9.60;5.07;;;16.20;99.90;;;;;;7582338;19;20022;-73
2023/07/25 05:46:18;;;;;;;9.88;5.03;;;16.20;99.90;;;;;;7568655;19;20020;-75
2023/07/25 05:48:51;;;;;;;8.85;4.95;;;16.20;99.90;;;;;;7576769;19;20019;-75
2023/07/25 05:51:23;;;;;;;7.75;4.85;;;16.20;99.90;;;;;;7567541;19;20117;-74
2023/07/25 05:53:56;;;;;;;13.25;4.95;;;16.20;99.90;;;;;;7568397;19;20490;-73
2023/07/25 05:56:29;;;;;;;6.47;4.25;;;16.30;99.90;;;;;;7577751;19;20022;-74
2023/07/25 05:59:01;;;;;;;8.60;5.10;;;16.30;99.90;;;;;;7559443;19;20018;-74
2023/07/25 06:01:33;;;;;;;7.70;4.72;;;16.30;99.90;;;;;;7575400;19;20026;-74
2023/07/25 06:04:06;;;;;;;11.77;5.87;;;16.30;99.90;;;;;;7595322;19;20675;-74
2023/07/25 06:06:38;;;;;;;10.10;5.22;;;16.30;99.90;;;;;;7584114;19;20018;-76
2023/07/25 06:09:12;;;;;;;10.13;5.10;;;16.40;99.90;;;;;;7562165;19;20010;-74
2023/07/25 06:11:44;;;;;;;8.35;5.32;;;16.40;99.90;;;;;;7589700;19;20045;-76
2023/07/25 06:14:16;;;;;;;12.00;6.07;;;16.50;99.90;;;;;;7580226;19;21164;-74
2023/07/25 06:16:48;;;;;;;6.32;4.97;;;16.50;99.90;;;;;;7587266;19;20495;-74
2023/07/25 06:19:21;;;;;;;7.53;5.00;;;16.60;99.90;;;;;;7576253;19;20082;-76
2023/07/25 06:21:54;;;;;;;8.38;5.30;;;16.60;99.90;;;;;;7582090;19;21321;-74
2023/07/25 06:24:26;;;;;;;11.80;4.78;;;16.60;99.90;;;;;;7574421;19;20014;-74
2023/07/25 06:26:58;;;;;;;11.57;5.30;;;16.70;99.90;;;;;;7594536;19;20089;-74
2023/07/25 06:29:31;;;;;;;8.63;5.18;;;16.70;99.90;;;;;;7572292;19;20631;-74
2023/07/25 06:32:04;;;;;;;10.77;5.13;;;16.70;99.90;;;;;;7572418;19;21577;-73
2023/07/25 06:34:36;;;;;;;8.47;5.70;;;16.70;99.90;;;;;;7585700;19;20283;-73
2023/07/25 06:37:09;;;;;;;9.57;5.03;;;16.70;99.90;;;;;;7583220;19;20300;-74
2023/07/25 06:39:41;;;;;;;7.65;4.80;;;16.70;99.90;;;;;;7565728;19;20014;-75
2023/07/25 06:42:14;;;;;;;10.48;5.50;;;16.70;99.90;;;;;;7583983;19;20592;-74
2023/07/25 06:44:50;;;;;;;11.35;5.43;;;16.60;99.90;;;;;;7590378;19;21514;-76
2023/07/25 06:47:22;;;;;;;9.57;5.45;;;16.60;99.90;;;;;;7562185;19;20507;-75
2023/07/25 06:49:54;;;;;;;7.60;5.20;;;16.70;99.90;;;;;;7567146;19;20129;-74
2023/07/25 06:52:27;;;;;;;10.00;5.30;;;16.70;99.90;;;;;;7559607;19;20109;-75
2023/07/25 06:54:59;;;;;;;10.85;5.22;;;16.70;99.90;;;;;;7594330;19;20018;-75
2023/07/25 06:57:31;;;;;;;8.73;5.10;;;16.70;99.90;;;;;;7577909;19;20049;-74
2023/07/25 07:00:07;;;;;;;12.23;5.25;;;16.80;99.90;;;;;;7568509;19;20010;-74
2023/07/25 07:02:41;;;;;;;11.80;4.60;;;16.80;99.90;;;;;;7590711;19;20035;-73
2023/07/25 07:05:13;;;;;;;9.00;4.97;;;16.90;99.90;;;;;;7582210;19;20022;-74
2023/07/25 07:08:00;;;;;;;7.15;4.57;;;16.90;99.90;;;;;;7591392;19;20015;-75
2023/07/25 07:10:33;;;;;;;8.65;4.78;;;17.00;99.90;;;;;;7572895;19;20022;-74
2023/07/25 07:13:07;;;;;;;9.63;5.07;;;17.00;99.90;;;;;;7593388;19;20485;-73
2023/07/25 07:15:39;;;;;;;8.38;4.45;;;17.00;99.90;;;;;;7572515;19;20109;-74
2023/07/25 07:18:11;;;;;;;10.45;4.53;;;16.90;99.90;;;;;;7588120;19;20019;-74
2023/07/25 07:20:47;;;;;;;9.27;4.68;;;17.00;99.90;;;;;;7594247;19;20018;-75
2023/07/25 07:23:19;;;;;;;10.25;4.88;;;17.00;99.90;;;;;;7560648;19;20544;-73
2023/07/25 07:25:52;;;;;;;8.93;4.27;;;17.00;99.90;;;;;;7590773;19;20118;-73
2023/07/25 07:28:24;;;;;;;7.50;5.05;;;17.00;99.90;;;;;;7573330;19;20898;-74
2023/07/25 07:30:56;;;;;;;8.55;4.30;;;17.00;99.90;;;;;;7583127;19;20014;-73
2023/07/25 07:33:29;;;;;;;7.38;4.28;;;17.10;99.90;;;;;;7567054;19;20026;-73
2023/07/25 07:36:02;;;;;;;9.70;4.55;;;17.20;99.90;;;;;;7582201;19;20098;-73
2023/07/25 07:38:34;;;;;;;5.97;4.53;;;17.30;99.90;;;;;;7576452;19;20022;-75
2023/07/25 07:41:06;;;;;;;8.57;4.07;;;17.40;99.90;;;;;;7585207;19;20011;-75
2023/07/25 07:43:38;;;;;;;5.50;3.40;;;17.60;99.90;;;;;;7587353;19;20022;-75
2023/07/25 07:46:11;;;;;;;5.28;3.28;;;17.60;99.90;;;;;;7581090;19;20102;-74
2023/07/25 07:48:44;;;;;;;5.38;3.83;;;17.70;99.90;;;;;;7580326;19;20018;-75
2023/07/25 07:51:16;;;;;;;7.25;3.53;;;17.70;99.90;;;;;;7576238;19;20952;-73
2023/07/25 07:53:49;;;;;;;4.63;3.25;;;17.70;99.90;;;;;;7581373;19;20066;-74
2023/07/25 07:56:22;;;;;;;7.32;3.15;;;17.70;99.90;;;;;;7572571;19;20038;-74
2023/07/25 07:58:56;;;;;;;7.18;3.55;;;17.70;99.90;;;;;;7588039;19;20011;-75
2023/07/25 08:01:29;;;;;;;5.82;3.33;;;17.70;99.90;;;;;;7574006;19;20018;-75
2023/07/25 08:04:02;;;;;;;5.10;3.47;;;17.80;99.90;;;;;;7593181;19;20022;-75
2023/07/25 08:06:34;;;;;;;7.38;3.47;;;17.80;99.90;;;;;;7594998;19;20003;-75
2023/07/25 08:09:08;;;;;;;9.52;3.67;;;17.90;99.90;;;;;;7599396;19;20014;-76
2023/07/25 08:11:40;;;;;;;5.78;3.58;;;18.00;99.90;;;;;;7577751;19;20469;-76
2023/07/25 08:14:12;;;;;;;5.80;3.75;;;18.10;99.90;;;;;;7556317;19;20022;-75
2023/07/25 08:16:44;;;;;;;5.18;3.60;;;18.10;99.90;;;;;;7567264;19;20022;-74
2023/07/25 08:19:17;;;;;;;5.15;3.75;;;18.10;99.90;;;;;;7563936;19;20025;-75
2023/07/25 08:21:53;;;;;;;5.10;2.95;;;18.10;99.90;;;;;;7557992;19;20627;-75
2023/07/25 08:24:25;;;;;;;5.55;4.03;;;18.10;99.90;;;;;;7559352;19;20417;-74
2023/07/25 08:26:58;;;;;;;4.80;3.20;;;17.80;99.90;;;;;;7574161;19;20014;-74
2023/07/25 08:29:30;;;;;;;5.47;3.20;;;17.80;99.90;;;;;;7570807;19;20015;-74
2023/07/25 08:32:02;;;;;;;7.57;3.05;;;17.70;99.90;;;;;;7570815;19;20014;-74
2023/07/25 08:34:36;;;;;;;4.68;3.15;;;17.70;99.90;;;;;;7580422;19;20020;-75
2023/07/25 08:37:08;;;;;;;5.63;3.35;;;17.30;99.90;;;;;;7553120;19;21065;-75
2023/07/25 08:39:40;;;;;;;5.22;3.42;;;17.10;99.90;;;;;;7570878;19;20049;-75
2023/07/25 08:42:15;;;;;;;5.13;3.63;;;17.00;99.90;;;;;;7557217;19;20901;-74
2023/07/25 08:44:51;;;;;;;7.13;3.40;;;16.80;99.90;;;;;;7577710;19;20014;-75
2023/07/25 08:47:27;;;;;;;5.00;3.50;;;16.70;99.90;;;;;;7563757;19;20135;-74
2023/07/25 08:50:02;;;;;;;4.80;3.72;;;16.70;99.90;;;;;;7579466;19;20025;-74
2023/07/25 08:52:35;;;;;;;5.75;3.75;;;16.60;99.90;;;;;;7576729;19;20429;-74
2023/07/25 08:55:08;;;;;;;6.53;3.40;;;16.70;99.90;;;;;;7588673;19;20044;-75
2023/07/25 08:57:42;;;;;;;5.55;3.72;;;16.70;99.90;;;;;;7555804;19;20015;-74
2023/07/25 09:00:14;;;;;;;5.25;3.20;;;16.80;99.90;;;;;;7585030;19;20015;-73
2023/07/25 09:02:47;;;;;;;4.80;3.55;;;16.70;99.90;;;;;;7568222;19;21003;-76
2023/07/25 09:05:28;;;;;;;5.35;3.33;;;16.80;99.90;;;;;;7577902;19;20006;-75
2023/07/25 09:08:02;;;;;;;5.45;3.10;;;16.80;99.90;;;;;;7571946;19;20074;-75
2023/07/25 09:10:34;;;;;;;5.90;3.40;;;16.90;99.90;;;;;;7558513;19;20018;-75
2023/07/25 09:13:07;;;;;;;5.25;3.22;;;16.90;99.90;;;;;;7560965;19;20021;-74
2023/07/25 09:15:39;;;;;;;7.15;3.15;;;16.90;99.90;;;;;;7557429;19;20018;-75
2023/07/25 09:18:11;;;;;;;4.38;3.38;;;16.80;99.90;;;;;;7551798;19;21101;-73
2023/07/25 09:20:45;;;;;;;5.35;3.33;;;16.90;99.90;;;;;;7568748;19;20048;-75
2023/07/25 09:23:23;;;;;;;5.82;3.20;;;16.80;99.90;;;;;;7577274;19;20026;-74
2023/07/25 09:26:11;;;;;;;5.22;3.60;;;16.90;99.90;;;;;;7568648;19;20018;-74
2023/07/25 09:28:55;;;;;;;4.90;3.20;;;16.80;99.90;;;;;;7574693;19;20017;-75
2023/07/25 09:31:41;;;;;;;3.90;3.03;;;16.90;99.90;;;;;;7564240;19;20014;-75
2023/07/25 09:34:17;;;;;;;3.97;2.60;;;16.80;99.90;;;;;;7594307;19;20359;-75
2023/07/25 09:36:49;;;;;;;4.15;3.03;;;16.90;99.90;;;;;;7585006;19;20023;-74
2023/07/25 09:39:22;;;;;;;4.93;3.38;;;16.80;99.90;;;;;;7550412;19;20014;-74
2023/07/25 09:41:57;;;;;;;5.00;3.38;;;16.80;99.90;;;;;;7576605;19;20011;-74
2023/07/25 09:44:33;;;;;;;5.63;3.58;;;16.80;99.90;;;;;;7575702;19;20010;-74
2023/07/25 09:47:08;;;;;;;5.43;3.60;;;16.80;99.90;;;;;;7570680;19;20010;-75
2023/07/25 09:49:50;;;;;;;7.90;2.95;;;16.90;99.90;;;;;;7560978;19;20025;-75
2023/07/25 09:52:23;;;;;;;5.38;3.00;;;16.90;99.90;;;;;;7571746;19;20018;-75
2023/07/25 09:54:56;;;;;;;6.80;2.75;;;16.90;99.90;;;;;;7578789;19;20562;-75
2023/07/25 09:57:28;;;;;;;4.35;2.70;;;17.00;99.90;;;;;;7547543;19;20610;-74
2023/07/25 10:00:04;;;;;;;5.10;3.33;;;17.00;99.90;;;;;;7572084;19;21331;-74
2023/07/25 10:02:39;;;;;;;4.07;2.60;;;16.90;99.90;;;;;;7581519;19;20015;-75
2023/07/25 10:05:12;;;;;;;3.72;2.78;;;17.00;99.90;;;;;;7595961;19;20026;-73
2023/07/25 10:07:44;;;;;;;5.50;3.78;;;17.00;99.90;;;;;;7569359;19;20023;-74
2023/07/25 10:10:18;;;;;;;5.10;2.67;;;17.20;99.90;;;;;;7565588;19;20023;-73
2023/07/25 10:12:50;;;;;;;;;;;17.30;99.90;;;;;;7575035;19;20010;-73
2023/07/25 10:15:22;;;;;;;3.85;2.42;;;17.40;99.90;;;;;;7565904;19;21459;-75
2023/07/25 10:18:02;;;;;;;5.05;3.08;;;17.50;99.90;;;;;;7562797;19;20021;-73
2023/07/25 10:20:35;;;;;;;4.55;2.40;;;17.60;99.90;;;;;;7563694;19;20019;-74
2023/07/25 10:23:10;;;;;;;6.80;3.00;;;17.80;99.90;;;;;;7568783;19;20006;-75
2023/07/25 10:25:42;;;;;;;4.47;2.45;;;17.90;99.90;;;;;;7576543;19;20136;-74
2023/07/25 10:28:22;;;;;;;3.03;2.43;;;18.10;99.90;;;;;;7551143;19;20025;-74
2023/07/25 10:30:54;;;;;;;3.58;2.55;;;18.00;99.90;;;;;;7565575;19;20026;-75
2023/07/25 10:33:26;;;;;;;6.63;2.67;;;18.20;99.90;;;;;;7566738;19;20020;-75
2023/07/25 10:35:59;;;;;;;5.57;2.50;;;18.30;99.90;;;;;;7563999;19;20018;-74
2023/07/25 10:38:40;;;;;;;3.90;2.63;;;18.40;99.90;;;;;;7561797;19;21205;-75
2023/07/25 10:41:13;;;;;;;3.47;2.35;;;18.50;99.90;;;;;;7581177;19;20026;-73
2023/07/25 10:43:59;;;;;;;3.45;2.65;;;18.90;99.90;;;;;;7577954;19;20010;-74
2023/07/25 10:46:34;;;;;;;3.60;2.08;;;18.90;99.90;;;;;;7547344;19;20025;-76
2023/07/25 10:49:17;;;;;;;2.58;2.17;;;18.80;99.90;;;;;;7559780;19;21997;-74
2023/07/25 10:51:51;;;;;;;3.28;2.33;;;18.90;99.90;;;;;;7579625;19;20051;-75
2023/07/25 10:54:24;;;;;;;2.60;2.13;;;19.10;99.90;;;;;;7578571;19;20097;-74
2023/07/25 10:57:14;;;;;;;3.58;2.13;;;19.50;99.90;;;;;;7563375;19;20014;-73
2023/07/25 11:00:01;;;;;;;3.88;1.83;;;19.60;99.90;;;;;;7567163;19;20038;-74
2023/07/25 11:02:40;;;;;;;5.85;2.20;;;19.80;99.90;;;;;;7583009;19;20045;-75
2023/07/25 11:05:12;;;;;;;4.20;2.50;;;19.70;99.90;;;;;;7568285;19;20014;-74
2023/07/25 11:07:45;;;;;;;3.00;1.83;;;19.80;99.90;;;;;;7568301;19;20023;-73
2023/07/25 11:10:25;;;;;;;2.80;1.77;;;19.90;99.90;;;;;;7574081;19;20524;-74
2023/07/25 11:12:59;;;;;;;2.30;1.60;;;20.00;99.90;;;;;;7580538;19;21128;-74
2023/07/25 11:15:32;;;;;;;2.58;1.40;;;20.00;99.90;;;;;;7559998;19;20014;-76
2023/07/25 11:18:18;;;;;;;4.07;1.88;;;20.00;99.90;;;;;;7587561;19;20030;-75
2023/07/25 11:21:01;;;;;;;3.28;1.85;;;19.90;99.90;;;;;;7594809;19;20022;-75
2023/07/25 11:23:34;;;;;;;3.10;1.60;;;19.80;99.90;;;;;;7589732;19;20031;-76
2023/07/25 11:26:07;;;;;;;3.28;1.90;;;19.80;99.90;;;;;;7555989;19;20010;-74
2023/07/25 11:28:40;;;;;;;3.58;2.08;;;19.90;99.90;;;;;;7528574;19;20019;-75
2023/07/25 11:31:21;;;;;;;3.13;1.70;;;19.90;99.90;;;;;;7577216;19;20015;-74
2023/07/25 11:33:53;;;;;;;2.65;1.58;;;19.90;99.90;;;;;;7561818;19;20014;-75
2023/07/25 11:36:26;;;;;;;2.20;1.40;;;19.90;99.90;;;;;;7576661;19;20049;-75
2023/07/25 11:39:01;;;;;;;3.13;1.73;;;19.90;99.90;;;;;;7571310;19;20017;-74
2023/07/25 11:41:34;;;;;;;2.50;1.60;;;20.10;99.90;;;;;;7526967;19;20019;-75
2023/07/25 11:44:12;;;;;;;2.92;1.70;;;20.20;99.90;;;;;;7570952;19;20019;-74
2023/07/25 11:46:48;;;;;;;2.85;1.83;;;20.20;99.90;;;;;;7579376;19;20017;-74
2023/07/25 11:49:21;;;;;;;2.22;1.70;;;20.50;99.90;;;;;;7564830;19;20044;-73
2023/07/25 11:52:14;;;;;;;1.85;1.67;;;20.40;99.90;;;;;;7570935;19;20942;-75
2023/07/25 11:54:47;;;;;;;3.03;1.87;;;20.50;99.90;;;;;;7570756;19;20029;-75
2023/07/25 11:57:19;;;;;;;2.35;1.80;;;20.60;99.90;;;;;;7579643;19;20033;-75
2023/07/25 11:59:55;;;;;;;3.45;2.10;;;20.90;99.90;;;;;;7556713;19;20018;-74
2023/07/25 12:02:35;;;;;;;2.53;1.65;;;21.20;99.90;;;;;;7545557;19;20014;-74
2023/07/25 12:05:08;;;;;;;2.97;1.70;;;21.50;99.90;;;;;;7578535;19;20014;-75
2023/07/25 12:07:47;;;;;;;;;;;21.70;99.90;;;;;;7565824;19;20064;-74
2023/07/25 12:10:26;;;;;;;4.45;1.70;;;21.70;99.90;;;;;;7563730;19;19923;-75
2023/07/25 12:13:04;;;;;;;6.45;1.80;;;21.30;99.90;;;;;;7552074;19;20043;-75
2023/07/25 12:15:43;;;;;;;3.58;1.75;;;20.80;99.90;;;;;;7522759;19;20434;-75
2023/07/25 12:18:25;;;;;;;5.18;2.30;;;19.90;99.90;;;;;;7521529;19;20029;-75
2023/07/25 12:20:59;;;;;;;6.03;2.42;;;19.20;99.90;;;;;;7568495;19;20018;-74
2023/07/25 12:23:38;;;;;;;2.22;1.77;;;18.80;99.90;;;;;;7533843;19;20006;-74
2023/07/25 12:26:10;;;;;;;3.90;1.85;;;18.40;99.90;;;;;;7555212;19;21029;-77
2023/07/25 12:28:47;;;;;;;4.38;2.15;;;18.20;99.90;;;;;;7551095;19;24589;-75
2023/07/25 12:31:20;;;;;;;6.55;2.58;;;18.10;99.90;;;;;;7549905;19;21793;-75
2023/07/25 12:33:52;;;;;;;4.57;2.33;;;17.90;99.90;;;;;;7581750;19;20026;-75
2023/07/25 12:36:24;;;;;;;7.68;2.60;;;17.70;99.90;;;;;;7568495;19;20019;-76
2023/07/25 12:38:57;;;;;;;5.40;2.10;;;17.70;99.90;;;;;;7568946;19;22489;-75
2023/07/25 12:41:29;;;;;;;4.53;2.53;;;17.40;99.90;;;;;;7523660;19;20022;-75
2023/07/25 12:44:01;;;;;;;3.67;2.13;;;17.40;99.90;;;;;;7560213;19;21806;-76
2023/07/25 12:46:39;;;;;;;4.68;2.17;;;17.40;99.90;;;;;;7560703;19;20027;-76
2023/07/25 12:49:12;;;;;;;6.47;2.20;;;17.70;99.90;;;;;;7546347;19;20680;-76
2023/07/25 12:51:44;;;;;;;4.60;2.15;;;18.10;99.90;;;;;;7571039;19;20022;-74
2023/07/25 12:54:16;;;;;;;3.58;2.10;;;19.00;99.90;;;;;;7552728;19;20011;-75
2023/07/25 12:56:49;;;;;;;2.80;1.80;;;19.30;99.90;;;;;;7544692;19;20065;-75
2023/07/25 12:59:21;;;;;;;4.68;2.15;;;19.70;99.90;;;;;;7556331;19;20018;-75
2023/07/25 13:01:53;;;;;;;5.13;2.00;;;20.20;99.90;;;;;;7553094;19;20033;-75
2023/07/25 13:04:26;;;;;;;2.20;1.50;;;20.60;99.90;;;;;;7533335;19;20370;-75
2023/07/25 13:06:59;;;;;;;4.93;2.20;;;21.20;99.90;;;;;;7537712;19;20014;-76
2023/07/25 13:09:31;;;;;;;3.97;2.50;;;20.90;99.90;;;;;;7548189;19;20025;-77
2023/07/25 13:12:04;;;;;;;4.75;2.10;;;20.90;99.90;;;;;;7554968;19;20822;-76
2023/07/25 13:14:36;;;;;;;4.20;2.33;;;21.00;99.90;;;;;;7534026;19;20082;-75
2023/07/25 13:17:08;;;;;;;5.60;2.45;;;21.40;99.90;;;;;;7525356;19;20283;-76